sensor_id;sensor_type;location;lat;lon;timestamp;P1;durP1;ratioP1;P2;durP2;ratioP2
6053;SDS011;3055;50.886;14.814;2023-02-08T00:02:09;46.13;;;25.93;;
6053;SDS011;3055;50.886;14.814;2023-02-08T00:04:36;42.13;;;26.03;;
6053;SDS011;3055;50.886;14.814;2023-02-08T00:07:03;49.50;;;25.10;;
6053;SDS011;3055;50.886;14.814;2023-02-08T00:09:30;48.03;;;26.77;;
6053;SDS011;3055;50.886;14.814;2023-02-08T00:11:58;43.00;;;25.63;;
6053;SDS011;3055;50.886;14.814;2023-02-08T00:14:25;47.60;;;25.50;;
6053;SDS011;3055;50.886;14.814;2023-02-08T00:16:52;45.57;;;25.90;;
6053;SDS011;3055;50.886;14.814;2023-02-08T00:19:19;45.73;;;24.83;;
6053;SDS011;3055;50.886;14.814;2023-02-08T00:21:46;43.97;;;25.30;;
6053;SDS011;3055;50.886;14.814;2023-02-08T00:24:14;52.27;;;28.67;;
6053;SDS011;3055;50.886;14.814;2023-02-08T00:26:41;51.57;;;27.73;;
6053;SDS011;3055;50.886;14.814;2023-02-08T00:29:09;53.73;;;26.17;;
6053;SDS011;3055;50.886;14.814;2023-02-08T00:31:36;53.23;;;27.90;;
6053;SDS011;3055;50.886;14.814;2023-02-08T00:34:03;53.03;;;27.17;;
6053;SDS011;3055;50.886;14.814;2023-02-08T00:36:31;56.10;;;28.13;;
6053;SDS011;3055;50.886;14.814;2023-02-08T00:38:58;56.37;;;26.83;;
6053;SDS011;3055;50.886;14.814;2023-02-08T00:41:25;49.90;;;28.20;;
6053;SDS011;3055;50.886;14.814;2023-02-08T00:43:52;42.77;;;26.03;;
6053;SDS011;3055;50.886;14.814;2023-02-08T00:46:20;46.20;;;26.47;;
6053;SDS011;3055;50.886;14.814;2023-02-08T00:48:47;50.70;;;25.87;;
6053;SDS011;3055;50.886;14.814;2023-02-08T00:51:14;54.63;;;27.07;;
6053;SDS011;3055;50.886;14.814;2023-02-08T00:53:42;52.80;;;28.00;;
6053;SDS011;3055;50.886;14.814;2023-02-08T00:56:11;57.80;;;30.17;;
6053;SDS011;3055;50.886;14.814;2023-02-08T00:58:38;48.67;;;29.40;;
6053;SDS011;3055;50.886;14.814;2023-02-08T01:01:06;50.70;;;29.13;;
6053;SDS011;3055;50.886;14.814;2023-02-08T01:03:35;45.67;;;27.20;;
6053;SDS011;3055;50.886;14.814;2023-02-08T01:06:05;49.80;;;26.73;;
6053;SDS011;3055;50.886;14.814;2023-02-08T01:08:34;51.90;;;28.90;;
6053;SDS011;3055;50.886;14.814;2023-02-08T01:11:02;50.83;;;27.57;;
6053;SDS011;3055;50.886;14.814;2023-02-08T01:13:31;57.33;;;30.30;;
6053;SDS011;3055;50.886;14.814;2023-02-08T01:16:04;51.17;;;28.00;;
6053;SDS011;3055;50.886;14.814;2023-02-08T01:18:32;44.57;;;27.37;;
6053;SDS011;3055;50.886;14.814;2023-02-08T01:21:04;51.10;;;27.33;;
6053;SDS011;3055;50.886;14.814;2023-02-08T01:23:32;54.97;;;28.00;;
6053;SDS011;3055;50.886;14.814;2023-02-08T01:25:59;54.33;;;29.03;;
6053;SDS011;3055;50.886;14.814;2023-02-08T01:28:26;51.23;;;27.17;;
6053;SDS011;3055;50.886;14.814;2023-02-08T01:30:53;51.30;;;27.53;;
6053;SDS011;3055;50.886;14.814;2023-02-08T01:33:21;50.77;;;27.77;;
6053;SDS011;3055;50.886;14.814;2023-02-08T01:35:48;47.87;;;26.30;;
6053;SDS011;3055;50.886;14.814;2023-02-08T01:38:18;52.13;;;27.03;;
6053;SDS011;3055;50.886;14.814;2023-02-08T01:40:46;43.53;;;24.43;;
6053;SDS011;3055;50.886;14.814;2023-02-08T01:43:16;44.87;;;24.03;;
6053;SDS011;3055;50.886;14.814;2023-02-08T01:45:46;43.80;;;25.43;;
6053;SDS011;3055;50.886;14.814;2023-02-08T01:48:14;43.27;;;24.50;;
6053;SDS011;3055;50.886;14.814;2023-02-08T01:50:44;45.57;;;25.10;;
6053;SDS011;3055;50.886;14.814;2023-02-08T01:53:16;48.10;;;25.37;;
6053;SDS011;3055;50.886;14.814;2023-02-08T01:55:46;47.70;;;25.77;;
6053;SDS011;3055;50.886;14.814;2023-02-08T01:58:16;42.13;;;23.90;;
6053;SDS011;3055;50.886;14.814;2023-02-08T02:00:45;42.37;;;24.97;;
6053;SDS011;3055;50.886;14.814;2023-02-08T02:03:13;45.37;;;24.53;;
6053;SDS011;3055;50.886;14.814;2023-02-08T02:05:41;44.83;;;24.57;;
6053;SDS011;3055;50.886;14.814;2023-02-08T02:08:09;45.70;;;25.23;;
6053;SDS011;3055;50.886;14.814;2023-02-08T02:10:39;38.87;;;23.17;;
6053;SDS011;3055;50.886;14.814;2023-02-08T02:13:08;44.53;;;24.53;;
6053;SDS011;3055;50.886;14.814;2023-02-08T02:15:37;44.27;;;24.70;;
6053;SDS011;3055;50.886;14.814;2023-02-08T02:18:05;45.73;;;25.40;;
6053;SDS011;3055;50.886;14.814;2023-02-08T02:20:37;41.73;;;24.50;;
6053;SDS011;3055;50.886;14.814;2023-02-08T02:26:17;43.30;;;25.17;;
6053;SDS011;3055;50.886;14.814;2023-02-08T02:29:12;42.33;;;24.37;;
6053;SDS011;3055;50.886;14.814;2023-02-08T02:32:08;37.80;;;23.20;;
6053;SDS011;3055;50.886;14.814;2023-02-08T02:34:44;41.60;;;23.43;;
6053;SDS011;3055;50.886;14.814;2023-02-08T02:37:19;43.40;;;22.77;;
6053;SDS011;3055;50.886;14.814;2023-02-08T02:39:59;42.07;;;23.67;;
6053;SDS011;3055;50.886;14.814;2023-02-08T02:42:36;41.20;;;24.50;;
6053;SDS011;3055;50.886;14.814;2023-02-08T02:45:29;42.60;;;22.53;;
6053;SDS011;3055;50.886;14.814;2023-02-08T02:48:03;40.37;;;23.67;;
6053;SDS011;3055;50.886;14.814;2023-02-08T02:50:36;39.53;;;23.07;;
6053;SDS011;3055;50.886;14.814;2023-02-08T02:53:09;44.90;;;23.07;;
6053;SDS011;3055;50.886;14.814;2023-02-08T02:55:45;38.70;;;23.57;;
6053;SDS011;3055;50.886;14.814;2023-02-08T02:58:15;42.13;;;23.90;;
6053;SDS011;3055;50.886;14.814;2023-02-08T03:00:50;44.13;;;23.63;;
6053;SDS011;3055;50.886;14.814;2023-02-08T03:03:21;44.83;;;21.73;;
6053;SDS011;3055;50.886;14.814;2023-02-08T03:05:49;39.73;;;23.27;;
6053;SDS011;3055;50.886;14.814;2023-02-08T03:08:25;37.63;;;22.73;;
6053;SDS011;3055;50.886;14.814;2023-02-08T03:11:14;38.50;;;21.40;;
6053;SDS011;3055;50.886;14.814;2023-02-08T03:13:49;42.40;;;22.43;;
6053;SDS011;3055;50.886;14.814;2023-02-08T03:16:30;37.80;;;20.57;;
6053;SDS011;3055;50.886;14.814;2023-02-08T03:19:05;42.13;;;22.27;;
6053;SDS011;3055;50.886;14.814;2023-02-08T03:21:39;40.03;;;21.97;;
6053;SDS011;3055;50.886;14.814;2023-02-08T03:24:21;42.50;;;21.37;;
6053;SDS011;3055;50.886;14.814;2023-02-08T03:26:53;39.03;;;22.40;;
6053;SDS011;3055;50.886;14.814;2023-02-08T03:29:28;43.07;;;22.03;;
6053;SDS011;3055;50.886;14.814;2023-02-08T03:32:05;34.77;;;21.07;;
6053;SDS011;3055;50.886;14.814;2023-02-08T03:34:40;41.93;;;22.77;;
6053;SDS011;3055;50.886;14.814;2023-02-08T03:37:14;35.97;;;21.17;;
6053;SDS011;3055;50.886;14.814;2023-02-08T03:39:46;43.40;;;23.30;;
6053;SDS011;3055;50.886;14.814;2023-02-08T03:42:17;37.83;;;22.03;;
6053;SDS011;3055;50.886;14.814;2023-02-08T03:44:48;38.40;;;21.47;;
6053;SDS011;3055;50.886;14.814;2023-02-08T03:47:19;36.47;;;21.87;;
6053;SDS011;3055;50.886;14.814;2023-02-08T03:49:51;40.20;;;21.60;;
6053;SDS011;3055;50.886;14.814;2023-02-08T03:52:22;39.00;;;22.30;;
6053;SDS011;3055;50.886;14.814;2023-02-08T03:54:51;45.50;;;24.37;;
6053;SDS011;3055;50.886;14.814;2023-02-08T03:57:21;52.93;;;25.80;;
6053;SDS011;3055;50.886;14.814;2023-02-08T03:59:52;50.37;;;26.37;;
6053;SDS011;3055;50.886;14.814;2023-02-08T04:02:22;41.63;;;23.47;;
6053;SDS011;3055;50.886;14.814;2023-02-08T04:04:54;37.57;;;23.17;;
6053;SDS011;3055;50.886;14.814;2023-02-08T04:07:23;42.57;;;23.27;;
6053;SDS011;3055;50.886;14.814;2023-02-08T04:09:50;44.67;;;24.50;;
6053;SDS011;3055;50.886;14.814;2023-02-08T04:12:18;40.40;;;23.33;;
6053;SDS011;3055;50.886;14.814;2023-02-08T04:14:45;39.70;;;24.17;;
6053;SDS011;3055;50.886;14.814;2023-02-08T04:17:12;43.40;;;24.97;;
6053;SDS011;3055;50.886;14.814;2023-02-08T04:19:39;42.63;;;22.97;;
6053;SDS011;3055;50.886;14.814;2023-02-08T04:22:07;46.10;;;25.07;;
6053;SDS011;3055;50.886;14.814;2023-02-08T04:24:34;51.13;;;25.07;;
6053;SDS011;3055;50.886;14.814;2023-02-08T04:27:02;112.47;;;44.83;;
6053;SDS011;3055;50.886;14.814;2023-02-08T04:29:29;118.30;;;46.87;;
6053;SDS011;3055;50.886;14.814;2023-02-08T04:31:56;105.97;;;43.57;;
6053;SDS011;3055;50.886;14.814;2023-02-08T04:34:24;96.37;;;43.40;;
6053;SDS011;3055;50.886;14.814;2023-02-08T04:36:51;70.37;;;33.13;;
6053;SDS011;3055;50.886;14.814;2023-02-08T04:39:19;43.97;;;24.67;;
6053;SDS011;3055;50.886;14.814;2023-02-08T04:41:46;40.83;;;23.37;;
6053;SDS011;3055;50.886;14.814;2023-02-08T04:44:13;49.23;;;23.27;;
6053;SDS011;3055;50.886;14.814;2023-02-08T04:46:41;41.13;;;23.87;;
6053;SDS011;3055;50.886;14.814;2023-02-08T04:49:08;36.60;;;23.20;;
6053;SDS011;3055;50.886;14.814;2023-02-08T04:51:35;39.90;;;23.00;;
6053;SDS011;3055;50.886;14.814;2023-02-08T04:54:02;42.07;;;21.90;;
6053;SDS011;3055;50.886;14.814;2023-02-08T04:56:31;38.90;;;23.30;;
6053;SDS011;3055;50.886;14.814;2023-02-08T04:58:58;40.07;;;23.03;;
6053;SDS011;3055;50.886;14.814;2023-02-08T05:01:25;37.53;;;22.80;;
6053;SDS011;3055;50.886;14.814;2023-02-08T05:03:52;40.20;;;22.37;;
6053;SDS011;3055;50.886;14.814;2023-02-08T05:06:20;38.77;;;23.73;;
6053;SDS011;3055;50.886;14.814;2023-02-08T05:08:47;47.50;;;22.80;;
6053;SDS011;3055;50.886;14.814;2023-02-08T05:11:17;46.90;;;23.47;;
6053;SDS011;3055;50.886;14.814;2023-02-08T05:13:46;38.93;;;22.57;;
6053;SDS011;3055;50.886;14.814;2023-02-08T05:16:13;39.40;;;23.00;;
6053;SDS011;3055;50.886;14.814;2023-02-08T05:18:40;36.67;;;21.73;;
6053;SDS011;3055;50.886;14.814;2023-02-08T05:21:08;37.43;;;21.07;;
6053;SDS011;3055;50.886;14.814;2023-02-08T05:23:35;36.33;;;21.23;;
6053;SDS011;3055;50.886;14.814;2023-02-08T05:26:04;37.47;;;22.77;;
6053;SDS011;3055;50.886;14.814;2023-02-08T05:28:32;40.17;;;21.37;;
6053;SDS011;3055;50.886;14.814;2023-02-08T05:31:07;36.40;;;21.00;;
6053;SDS011;3055;50.886;14.814;2023-02-08T05:33:35;39.23;;;22.57;;
6053;SDS011;3055;50.886;14.814;2023-02-08T05:36:03;40.30;;;19.93;;
6053;SDS011;3055;50.886;14.814;2023-02-08T05:38:30;38.57;;;21.50;;
6053;SDS011;3055;50.886;14.814;2023-02-08T05:40:57;35.37;;;21.40;;
6053;SDS011;3055;50.886;14.814;2023-02-08T05:43:24;39.33;;;21.60;;
6053;SDS011;3055;50.886;14.814;2023-02-08T05:45:51;40.20;;;22.07;;
6053;SDS011;3055;50.886;14.814;2023-02-08T05:48:20;40.13;;;21.20;;
6053;SDS011;3055;50.886;14.814;2023-02-08T05:50:47;42.10;;;23.60;;
6053;SDS011;3055;50.886;14.814;2023-02-08T05:53:14;36.77;;;21.50;;
6053;SDS011;3055;50.886;14.814;2023-02-08T05:55:42;38.03;;;21.50;;
6053;SDS011;3055;50.886;14.814;2023-02-08T05:58:10;40.17;;;23.03;;
6053;SDS011;3055;50.886;14.814;2023-02-08T06:00:37;39.53;;;23.00;;
6053;SDS011;3055;50.886;14.814;2023-02-08T06:03:04;35.40;;;20.53;;
6053;SDS011;3055;50.886;14.814;2023-02-08T06:05:33;43.03;;;21.90;;
6053;SDS011;3055;50.886;14.814;2023-02-08T06:08:02;35.37;;;22.50;;
6053;SDS011;3055;50.886;14.814;2023-02-08T06:10:29;38.93;;;21.70;;
6053;SDS011;3055;50.886;14.814;2023-02-08T06:12:56;39.53;;;21.67;;
6053;SDS011;3055;50.886;14.814;2023-02-08T06:15:24;39.00;;;21.67;;
6053;SDS011;3055;50.886;14.814;2023-02-08T06:17:51;39.57;;;22.57;;
6053;SDS011;3055;50.886;14.814;2023-02-08T06:20:18;40.07;;;22.27;;
6053;SDS011;3055;50.886;14.814;2023-02-08T06:22:46;37.23;;;21.73;;
6053;SDS011;3055;50.886;14.814;2023-02-08T06:25:14;36.13;;;21.43;;
6053;SDS011;3055;50.886;14.814;2023-02-08T06:27:41;32.83;;;19.37;;
6053;SDS011;3055;50.886;14.814;2023-02-08T06:30:08;41.57;;;21.27;;
6053;SDS011;3055;50.886;14.814;2023-02-08T06:32:36;38.00;;;21.80;;
6053;SDS011;3055;50.886;14.814;2023-02-08T06:35:03;37.70;;;22.10;;
6053;SDS011;3055;50.886;14.814;2023-02-08T06:37:30;42.17;;;22.07;;
6053;SDS011;3055;50.886;14.814;2023-02-08T06:39:59;37.63;;;21.30;;
6053;SDS011;3055;50.886;14.814;2023-02-08T06:42:26;36.90;;;21.77;;
6053;SDS011;3055;50.886;14.814;2023-02-08T06:44:53;34.73;;;21.77;;
6053;SDS011;3055;50.886;14.814;2023-02-08T06:47:22;38.20;;;22.20;;
6053;SDS011;3055;50.886;14.814;2023-02-08T06:49:49;37.10;;;21.70;;
6053;SDS011;3055;50.886;14.814;2023-02-08T06:52:16;47.03;;;23.37;;
6053;SDS011;3055;50.886;14.814;2023-02-08T06:54:44;43.90;;;22.77;;
6053;SDS011;3055;50.886;14.814;2023-02-08T06:57:12;41.37;;;23.00;;
6053;SDS011;3055;50.886;14.814;2023-02-08T06:59:39;40.77;;;22.03;;
6053;SDS011;3055;50.886;14.814;2023-02-08T07:02:09;36.17;;;20.63;;
6053;SDS011;3055;50.886;14.814;2023-02-08T07:04:38;39.23;;;22.87;;
6053;SDS011;3055;50.886;14.814;2023-02-08T07:07:05;41.27;;;22.20;;
6053;SDS011;3055;50.886;14.814;2023-02-08T07:09:32;39.40;;;22.03;;
6053;SDS011;3055;50.886;14.814;2023-02-08T07:11:59;41.43;;;22.27;;
6053;SDS011;3055;50.886;14.814;2023-02-08T07:14:30;40.00;;;23.33;;
6053;SDS011;3055;50.886;14.814;2023-02-08T07:16:57;41.47;;;22.53;;
6053;SDS011;3055;50.886;14.814;2023-02-08T07:19:25;37.67;;;21.20;;
6053;SDS011;3055;50.886;14.814;2023-02-08T07:21:52;40.00;;;21.77;;
6053;SDS011;3055;50.886;14.814;2023-02-08T07:24:19;38.80;;;22.23;;
6053;SDS011;3055;50.886;14.814;2023-02-08T07:26:46;35.40;;;20.23;;
6053;SDS011;3055;50.886;14.814;2023-02-08T07:29:14;34.87;;;20.90;;
6053;SDS011;3055;50.886;14.814;2023-02-08T07:31:42;32.07;;;20.70;;
6053;SDS011;3055;50.886;14.814;2023-02-08T07:34:09;36.90;;;20.77;;
6053;SDS011;3055;50.886;14.814;2023-02-08T07:36:36;31.07;;;20.03;;
6053;SDS011;3055;50.886;14.814;2023-02-08T07:39:03;33.93;;;19.43;;
6053;SDS011;3055;50.886;14.814;2023-02-08T07:41:30;34.93;;;19.23;;
6053;SDS011;3055;50.886;14.814;2023-02-08T07:43:58;34.57;;;20.90;;
6053;SDS011;3055;50.886;14.814;2023-02-08T07:46:26;33.57;;;20.57;;
6053;SDS011;3055;50.886;14.814;2023-02-08T07:48:54;31.30;;;19.07;;
6053;SDS011;3055;50.886;14.814;2023-02-08T07:51:21;34.67;;;18.53;;
6053;SDS011;3055;50.886;14.814;2023-02-08T07:53:49;29.90;;;18.40;;
6053;SDS011;3055;50.886;14.814;2023-02-08T07:56:16;29.97;;;18.30;;
6053;SDS011;3055;50.886;14.814;2023-02-08T07:58:43;36.13;;;18.60;;
6053;SDS011;3055;50.886;14.814;2023-02-08T08:01:10;30.00;;;18.83;;
6053;SDS011;3055;50.886;14.814;2023-02-08T08:03:37;34.97;;;19.67;;
6053;SDS011;3055;50.886;14.814;2023-02-08T08:06:06;33.93;;;18.70;;
6053;SDS011;3055;50.886;14.814;2023-02-08T08:08:33;35.63;;;18.20;;
6053;SDS011;3055;50.886;14.814;2023-02-08T08:11:00;29.20;;;17.63;;
6053;SDS011;3055;50.886;14.814;2023-02-08T08:13:27;33.07;;;16.93;;
6053;SDS011;3055;50.886;14.814;2023-02-08T08:15:54;28.10;;;16.93;;
6053;SDS011;3055;50.886;14.814;2023-02-08T08:18:22;30.23;;;18.27;;
6053;SDS011;3055;50.886;14.814;2023-02-08T08:20:49;32.70;;;19.87;;
6053;SDS011;3055;50.886;14.814;2023-02-08T08:23:18;29.97;;;19.57;;
6053;SDS011;3055;50.886;14.814;2023-02-08T08:25:45;32.10;;;19.07;;
6053;SDS011;3055;50.886;14.814;2023-02-08T08:28:12;34.80;;;20.77;;
6053;SDS011;3055;50.886;14.814;2023-02-08T08:30:41;32.37;;;18.37;;
6053;SDS011;3055;50.886;14.814;2023-02-08T08:33:09;30.87;;;18.43;;
6053;SDS011;3055;50.886;14.814;2023-02-08T08:35:38;26.30;;;15.90;;
6053;SDS011;3055;50.886;14.814;2023-02-08T08:38:05;26.03;;;14.97;;
6053;SDS011;3055;50.886;14.814;2023-02-08T08:40:33;25.27;;;16.60;;
6053;SDS011;3055;50.886;14.814;2023-02-08T08:43:00;29.67;;;16.30;;
6053;SDS011;3055;50.886;14.814;2023-02-08T08:45:27;23.20;;;14.57;;
6053;SDS011;3055;50.886;14.814;2023-02-08T08:47:55;27.23;;;14.57;;
6053;SDS011;3055;50.886;14.814;2023-02-08T08:50:22;26.30;;;16.07;;
6053;SDS011;3055;50.886;14.814;2023-02-08T08:52:49;20.07;;;12.57;;
6053;SDS011;3055;50.886;14.814;2023-02-08T08:55:16;24.37;;;14.33;;
6053;SDS011;3055;50.886;14.814;2023-02-08T08:57:45;21.07;;;13.63;;
6053;SDS011;3055;50.886;14.814;2023-02-08T09:00:12;19.73;;;12.73;;
6053;SDS011;3055;50.886;14.814;2023-02-08T09:02:40;20.87;;;12.60;;
6053;SDS011;3055;50.886;14.814;2023-02-08T09:05:07;18.77;;;12.67;;
6053;SDS011;3055;50.886;14.814;2023-02-08T09:07:34;22.43;;;13.10;;
6053;SDS011;3055;50.886;14.814;2023-02-08T09:10:01;20.33;;;12.10;;
6053;SDS011;3055;50.886;14.814;2023-02-08T09:12:28;21.10;;;13.57;;
6053;SDS011;3055;50.886;14.814;2023-02-08T09:14:56;18.07;;;12.20;;
6053;SDS011;3055;50.886;14.814;2023-02-08T09:17:23;19.03;;;12.07;;
6053;SDS011;3055;50.886;14.814;2023-02-08T09:19:51;21.33;;;12.80;;
6053;SDS011;3055;50.886;14.814;2023-02-08T09:22:18;20.10;;;11.40;;
6053;SDS011;3055;50.886;14.814;2023-02-08T09:24:45;17.53;;;10.30;;
6053;SDS011;3055;50.886;14.814;2023-02-08T09:27:12;16.70;;;10.73;;
6053;SDS011;3055;50.886;14.814;2023-02-08T09:29:39;15.67;;;11.57;;
6053;SDS011;3055;50.886;14.814;2023-02-08T09:32:08;15.47;;;9.30;;
6053;SDS011;3055;50.886;14.814;2023-02-08T09:34:35;19.83;;;11.23;;
6053;SDS011;3055;50.886;14.814;2023-02-08T09:37:02;17.53;;;11.07;;
6053;SDS011;3055;50.886;14.814;2023-02-08T09:39:31;16.67;;;10.30;;
6053;SDS011;3055;50.886;14.814;2023-02-08T09:42:14;13.47;;;9.10;;
6053;SDS011;3055;50.886;14.814;2023-02-08T09:45:06;15.93;;;9.30;;
6053;SDS011;3055;50.886;14.814;2023-02-08T09:47:56;13.30;;;7.97;;
6053;SDS011;3055;50.886;14.814;2023-02-08T09:50:30;15.83;;;9.17;;
6053;SDS011;3055;50.886;14.814;2023-02-08T09:53:01;13.00;;;9.03;;
6053;SDS011;3055;50.886;14.814;2023-02-08T09:55:37;15.03;;;9.17;;
6053;SDS011;3055;50.886;14.814;2023-02-08T09:58:12;13.20;;;7.77;;
6053;SDS011;3055;50.886;14.814;2023-02-08T10:00:46;10.77;;;8.57;;
6053;SDS011;3055;50.886;14.814;2023-02-08T10:06:00;13.90;;;8.23;;
6053;SDS011;3055;50.886;14.814;2023-02-08T10:08:28;13.00;;;8.93;;
6053;SDS011;3055;50.886;14.814;2023-02-08T10:10:58;12.83;;;7.97;;
6053;SDS011;3055;50.886;14.814;2023-02-08T10:16:44;11.40;;;7.90;;
6053;SDS011;3055;50.886;14.814;2023-02-08T10:19:25;7.90;;;6.67;;
6053;SDS011;3055;50.886;14.814;2023-02-08T10:22:10;9.40;;;7.13;;
6053;SDS011;3055;50.886;14.814;2023-02-08T10:24:50;11.37;;;7.27;;
6053;SDS011;3055;50.886;14.814;2023-02-08T10:27:30;13.00;;;7.17;;
6053;SDS011;3055;50.886;14.814;2023-02-08T10:32:59;11.87;;;6.93;;
6053;SDS011;3055;50.886;14.814;2023-02-08T10:35:29;11.83;;;7.30;;
6053;SDS011;3055;50.886;14.814;2023-02-08T10:38:02;10.13;;;7.53;;
6053;SDS011;3055;50.886;14.814;2023-02-08T10:40:48;12.40;;;8.07;;
6053;SDS011;3055;50.886;14.814;2023-02-08T10:43:18;12.50;;;8.13;;
6053;SDS011;3055;50.886;14.814;2023-02-08T10:45:53;10.17;;;7.10;;
6053;SDS011;3055;50.886;14.814;2023-02-08T10:48:28;14.83;;;8.20;;
6053;SDS011;3055;50.886;14.814;2023-02-08T10:51:04;12.50;;;8.20;;
6053;SDS011;3055;50.886;14.814;2023-02-08T10:53:32;10.63;;;7.17;;
6053;SDS011;3055;50.886;14.814;2023-02-08T10:55:59;15.03;;;7.80;;
6053;SDS011;3055;50.886;14.814;2023-02-08T10:58:26;10.57;;;7.07;;
6053;SDS011;3055;50.886;14.814;2023-02-08T11:00:53;10.13;;;6.83;;
6053;SDS011;3055;50.886;14.814;2023-02-08T11:03:22;10.67;;;7.97;;
6053;SDS011;3055;50.886;14.814;2023-02-08T11:05:51;10.57;;;7.67;;
6053;SDS011;3055;50.886;14.814;2023-02-08T11:08:20;9.87;;;7.23;;
6053;SDS011;3055;50.886;14.814;2023-02-08T11:10:55;9.63;;;7.37;;
6053;SDS011;3055;50.886;14.814;2023-02-08T11:13:24;12.67;;;8.13;;
6053;SDS011;3055;50.886;14.814;2023-02-08T11:15:58;11.23;;;6.63;;
6053;SDS011;3055;50.886;14.814;2023-02-08T11:18:27;9.50;;;6.73;;
6053;SDS011;3055;50.886;14.814;2023-02-08T11:20:57;10.10;;;6.60;;
6053;SDS011;3055;50.886;14.814;2023-02-08T11:23:28;11.33;;;6.43;;
6053;SDS011;3055;50.886;14.814;2023-02-08T11:26:11;11.83;;;7.70;;
6053;SDS011;3055;50.886;14.814;2023-02-08T11:28:41;12.73;;;8.13;;
6053;SDS011;3055;50.886;14.814;2023-02-08T11:31:14;13.43;;;8.00;;
6053;SDS011;3055;50.886;14.814;2023-02-08T11:33:56;9.53;;;7.47;;
6053;SDS011;3055;50.886;14.814;2023-02-08T11:36:25;10.50;;;6.80;;
6053;SDS011;3055;50.886;14.814;2023-02-08T11:38:54;9.80;;;6.97;;
6053;SDS011;3055;50.886;14.814;2023-02-08T11:41:22;8.40;;;6.77;;
6053;SDS011;3055;50.886;14.814;2023-02-08T11:43:59;9.50;;;6.80;;
6053;SDS011;3055;50.886;14.814;2023-02-08T11:46:28;9.43;;;6.83;;
6053;SDS011;3055;50.886;14.814;2023-02-08T11:48:59;11.00;;;7.50;;
6053;SDS011;3055;50.886;14.814;2023-02-08T11:51:28;9.53;;;7.00;;
6053;SDS011;3055;50.886;14.814;2023-02-08T11:54:00;11.00;;;7.77;;
6053;SDS011;3055;50.886;14.814;2023-02-08T11:56:28;10.40;;;7.23;;
6053;SDS011;3055;50.886;14.814;2023-02-08T11:58:58;12.50;;;8.00;;
6053;SDS011;3055;50.886;14.814;2023-02-08T12:01:28;10.93;;;7.80;;
6053;SDS011;3055;50.886;14.814;2023-02-08T12:03:58;10.53;;;8.17;;
6053;SDS011;3055;50.886;14.814;2023-02-08T12:09:41;13.17;;;8.00;;
6053;SDS011;3055;50.886;14.814;2023-02-08T12:12:47;8.63;;;7.50;;
6053;SDS011;3055;50.886;14.814;2023-02-08T12:15:24;13.43;;;8.03;;
6053;SDS011;3055;50.886;14.814;2023-02-08T12:18:13;11.83;;;8.40;;
6053;SDS011;3055;50.886;14.814;2023-02-08T12:20:52;10.67;;;7.83;;
6053;SDS011;3055;50.886;14.814;2023-02-08T12:23:30;10.07;;;8.03;;
6053;SDS011;3055;50.886;14.814;2023-02-08T12:26:22;12.60;;;8.00;;
6053;SDS011;3055;50.886;14.814;2023-02-08T12:29:09;10.87;;;7.57;;
6053;SDS011;3055;50.886;14.814;2023-02-08T12:31:51;10.40;;;7.50;;
6053;SDS011;3055;50.886;14.814;2023-02-08T12:34:27;10.70;;;7.87;;
6053;SDS011;3055;50.886;14.814;2023-02-08T12:37:12;8.03;;;5.90;;
6053;SDS011;3055;50.886;14.814;2023-02-08T12:40:10;10.43;;;6.80;;
6053;SDS011;3055;50.886;14.814;2023-02-08T12:43:08;9.70;;;7.07;;
6053;SDS011;3055;50.886;14.814;2023-02-08T12:46:04;9.87;;;6.23;;
6053;SDS011;3055;50.886;14.814;2023-02-08T12:48:45;10.97;;;7.53;;
6053;SDS011;3055;50.886;14.814;2023-02-08T12:51:23;7.40;;;6.00;;
6053;SDS011;3055;50.886;14.814;2023-02-08T12:53:59;11.67;;;6.87;;
6053;SDS011;3055;50.886;14.814;2023-02-08T12:56:35;6.80;;;5.40;;
6053;SDS011;3055;50.886;14.814;2023-02-08T12:59:10;10.03;;;6.57;;
6053;SDS011;3055;50.886;14.814;2023-02-08T13:01:45;8.87;;;6.27;;
6053;SDS011;3055;50.886;14.814;2023-02-08T13:04:17;6.77;;;5.60;;
6053;SDS011;3055;50.886;14.814;2023-02-08T13:06:50;10.07;;;6.27;;
6053;SDS011;3055;50.886;14.814;2023-02-08T13:09:24;9.80;;;6.07;;
6053;SDS011;3055;50.886;14.814;2023-02-08T13:12:01;9.93;;;6.53;;
6053;SDS011;3055;50.886;14.814;2023-02-08T13:14:36;9.07;;;5.97;;
6053;SDS011;3055;50.886;14.814;2023-02-08T13:17:10;7.63;;;6.20;;
6053;SDS011;3055;50.886;14.814;2023-02-08T13:19:44;7.97;;;6.00;;
6053;SDS011;3055;50.886;14.814;2023-02-08T13:22:15;8.43;;;5.83;;
6053;SDS011;3055;50.886;14.814;2023-02-08T13:24:44;7.97;;;5.10;;
6053;SDS011;3055;50.886;14.814;2023-02-08T13:27:14;9.73;;;6.40;;
6053;SDS011;3055;50.886;14.814;2023-02-08T13:29:44;7.43;;;6.07;;
6053;SDS011;3055;50.886;14.814;2023-02-08T13:32:14;8.13;;;5.40;;
6053;SDS011;3055;50.886;14.814;2023-02-08T13:34:47;8.00;;;5.87;;
6053;SDS011;3055;50.886;14.814;2023-02-08T13:37:19;9.23;;;6.30;;
6053;SDS011;3055;50.886;14.814;2023-02-08T13:39:48;9.90;;;6.77;;
6053;SDS011;3055;50.886;14.814;2023-02-08T13:42:20;9.83;;;5.70;;
6053;SDS011;3055;50.886;14.814;2023-02-08T13:44:54;8.30;;;6.13;;
6053;SDS011;3055;50.886;14.814;2023-02-08T13:47:23;9.60;;;6.23;;
6053;SDS011;3055;50.886;14.814;2023-02-08T13:49:54;10.17;;;5.80;;
6053;SDS011;3055;50.886;14.814;2023-02-08T13:52:46;8.97;;;6.27;;
6053;SDS011;3055;50.886;14.814;2023-02-08T13:58:26;6.50;;;5.63;;
6053;SDS011;3055;50.886;14.814;2023-02-08T14:01:04;7.10;;;5.47;;
6053;SDS011;3055;50.886;14.814;2023-02-08T14:03:39;8.80;;;6.30;;
6053;SDS011;3055;50.886;14.814;2023-02-08T14:06:07;8.47;;;6.83;;
6053;SDS011;3055;50.886;14.814;2023-02-08T14:08:47;8.50;;;6.00;;
6053;SDS011;3055;50.886;14.814;2023-02-08T14:11:24;7.17;;;5.70;;
6053;SDS011;3055;50.886;14.814;2023-02-08T14:13:58;8.33;;;6.93;;
6053;SDS011;3055;50.886;14.814;2023-02-08T14:16:30;9.43;;;6.93;;
6053;SDS011;3055;50.886;14.814;2023-02-08T14:19:00;10.97;;;6.20;;
6053;SDS011;3055;50.886;14.814;2023-02-08T14:21:31;8.00;;;6.70;;
6053;SDS011;3055;50.886;14.814;2023-02-08T14:24:02;7.63;;;6.50;;
6053;SDS011;3055;50.886;14.814;2023-02-08T14:26:31;9.57;;;6.70;;
6053;SDS011;3055;50.886;14.814;2023-02-08T14:29:01;7.33;;;5.77;;
6053;SDS011;3055;50.886;14.814;2023-02-08T14:31:41;8.67;;;5.97;;
6053;SDS011;3055;50.886;14.814;2023-02-08T14:34:20;9.03;;;6.17;;
6053;SDS011;3055;50.886;14.814;2023-02-08T14:37:01;8.13;;;6.30;;
6053;SDS011;3055;50.886;14.814;2023-02-08T14:39:31;10.43;;;7.03;;
6053;SDS011;3055;50.886;14.814;2023-02-08T14:42:01;10.20;;;7.27;;
6053;SDS011;3055;50.886;14.814;2023-02-08T14:50:52;9.23;;;7.03;;
6053;SDS011;3055;50.886;14.814;2023-02-08T14:53:28;9.30;;;7.00;;
6053;SDS011;3055;50.886;14.814;2023-02-08T14:56:02;13.13;;;8.07;;
6053;SDS011;3055;50.886;14.814;2023-02-08T14:58:33;10.83;;;7.83;;
6053;SDS011;3055;50.886;14.814;2023-02-08T15:01:05;11.53;;;7.77;;
6053;SDS011;3055;50.886;14.814;2023-02-08T15:03:35;11.17;;;8.10;;
6053;SDS011;3055;50.886;14.814;2023-02-08T15:06:14;10.93;;;7.47;;
6053;SDS011;3055;50.886;14.814;2023-02-08T15:09:02;14.07;;;8.60;;
6053;SDS011;3055;50.886;14.814;2023-02-08T15:11:31;14.17;;;8.00;;
6053;SDS011;3055;50.886;14.814;2023-02-08T15:14:00;11.47;;;8.37;;
6053;SDS011;3055;50.886;14.814;2023-02-08T15:16:31;11.27;;;8.20;;
6053;SDS011;3055;50.886;14.814;2023-02-08T15:19:03;12.80;;;7.60;;
6053;SDS011;3055;50.886;14.814;2023-02-08T15:21:32;12.47;;;8.10;;
6053;SDS011;3055;50.886;14.814;2023-02-08T15:24:02;10.40;;;8.13;;
6053;SDS011;3055;50.886;14.814;2023-02-08T15:26:32;10.93;;;7.90;;
6053;SDS011;3055;50.886;14.814;2023-02-08T15:28:59;11.70;;;8.00;;